To NAV CANADA Home Page Login to a new session Search on AWWS site Feedback and Comments Disclaimer Vers la page française équivalente Tips FAQ What's new on the site To the Forecasts and Observations / NOTAM section To "File a Flight Plan" website Publications and other links Update of the User's profile FIC Telephone Numbers My Weather Data Folder Route Weather Data Regional Weather Data Local Weather Data To the Forecasts and Observations / NOTAM section
Request Generated 02/09/2016 at 22:18:47 UTC . Weather information available at that time is displayed.

METAR/TAF

NAIN/NL    

METAR CYDP 092200Z 00000KT 15SM SCT200 OVC220 M22/M27 A3023 RMK
CS4CI4 SLP238 DENSITY ALT MISG=
METAR CYDP 092100Z 00000KT 15SM SCT200 OVC220 M22/M25 A3023 RMK
CS4CI4 SLP238 DENSITY ALT MISG=
METAR CYDP 092000Z 00000KT 15SM SCT200 OVC220 M21/M26 A3024 RMK
CS3CI5 SLP243=

TAF CYDP 091939Z 0920/0924 VRB03KT P6SM SCT200 OVC220
RMK NXT FCST WILL BE ISSUED AT 101045Z=
Your time UTC time
Weather data provided by Environment Canada and NAV CANADA